Time;durP1;ratioP1;P1;durP2;ratioP2;P2;SDS_P1;SDS_P2;PMS_P1;PMS_P2;Temp;Humidity;BMP_temperature;BMP_pressure;BME280_temperature;BME280_humidity;BME280_pressure;Samples;Min_cycle;Max_cycle;Signal;HPM_P1;HPM_P2
2022/05/27 00:02:21;;;;;;;13.38;3.47;;;14.30;99.90;;;;;;5094626;28;20103;-72
2022/05/27 00:04:47;;;;;;;9.02;3.22;;;14.30;99.90;;;;;;5110234;28;20089;-71
2022/05/27 00:07:13;;;;;;;12.20;3.10;;;14.30;99.90;;;;;;5111341;28;20055;-71
2022/05/27 00:09:38;;;;;;;14.80;3.33;;;14.20;99.90;;;;;;5111051;28;20125;-76
2022/05/27 00:12:04;;;;;;;13.95;3.53;;;14.10;99.90;;;;;;5111190;28;20127;-76
2022/05/27 00:14:30;;;;;;;12.93;2.97;;;14.00;99.90;;;;;;5096543;28;20071;-76
2022/05/27 00:16:56;;;;;;;9.25;2.60;;;14.00;99.90;;;;;;5110429;28;20475;-76
2022/05/27 00:19:21;;;;;;;9.13;2.50;;;14.00;99.90;;;;;;5100078;28;20044;-76
2022/05/27 00:21:47;;;;;;;13.20;2.78;;;13.90;99.90;;;;;;5093875;28;20058;-76
2022/05/27 00:24:13;;;;;;;12.32;3.47;;;14.00;99.90;;;;;;5091156;28;20160;-76
2022/05/27 00:26:39;;;;;;;8.93;2.83;;;13.90;99.90;;;;;;5074130;28;20519;-76
2022/05/27 00:29:04;;;;;;;8.45;3.13;;;13.90;99.90;;;;;;5092575;28;20054;-76
2022/05/27 00:31:32;;;;;;;13.13;3.15;;;13.80;99.90;;;;;;5074016;28;20043;-76
2022/05/27 00:33:58;;;;;;;14.07;2.83;;;13.80;99.90;;;;;;5091519;28;20565;-76
2022/05/27 00:36:23;;;;;;;9.00;2.40;;;13.70;99.90;;;;;;5097461;28;20043;-76
2022/05/27 00:38:50;;;;;;;11.15;2.85;;;13.80;99.90;;;;;;5093736;28;20052;-76
2022/05/27 00:41:15;;;;;;;;;;;13.70;99.90;;;;;;5091194;28;20396;-76
2022/05/27 00:43:42;;;;;;;12.55;2.70;;;13.70;99.90;;;;;;5094529;28;19920;-76
2022/05/27 00:46:20;;;;;;;10.98;2.53;;;13.70;99.90;;;;;;5094244;28;20050;-76
2022/05/27 00:48:50;;;;;;;10.25;2.35;;;13.50;99.90;;;;;;5110660;28;20390;-75
2022/05/27 00:51:24;;;;;;;12.30;2.88;;;13.60;99.90;;;;;;5110380;28;20075;-74
2022/05/27 00:53:57;;;;;;;8.85;2.72;;;13.50;99.90;;;;;;5095429;28;20048;-75
2022/05/27 00:56:28;;;;;;;9.45;2.47;;;13.50;99.90;;;;;;5095900;28;20043;-74
2022/05/27 00:58:59;;;;;;;8.85;2.15;;;13.40;99.90;;;;;;5107716;28;20490;-74
2022/05/27 01:01:26;;;;;;;14.60;3.08;;;13.50;99.90;;;;;;5100182;28;20051;-75
2022/05/27 01:03:55;;;;;;;11.98;2.58;;;13.30;99.90;;;;;;5090093;28;20040;-74
2022/05/27 01:06:21;;;;;;;11.95;3.08;;;13.30;99.90;;;;;;5101507;28;20486;-75
2022/05/27 01:08:47;;;;;;;7.32;1.85;;;13.30;99.90;;;;;;5086093;28;20456;-75
2022/05/27 01:11:34;;;;;;;10.05;2.00;;;13.20;99.90;;;;;;5079165;28;20042;-74
2022/05/27 01:14:23;;;;;;;10.05;2.13;;;13.10;99.90;;;;;;5102403;28;20048;-74
2022/05/27 01:17:13;;;;;;;15.80;2.88;;;13.10;99.90;;;;;;5091347;28;20131;-74
2022/05/27 01:20:18;;;;;;;10.52;2.40;;;13.20;99.90;;;;;;5100830;28;20053;-75
2022/05/27 01:22:50;;;;;;;10.63;3.05;;;13.10;99.90;;;;;;5091714;28;20131;-75
2022/05/27 01:25:40;;;;;;;9.90;2.00;;;13.10;99.90;;;;;;5092293;28;20219;-75
2022/05/27 01:28:43;;;;;;;10.52;2.47;;;13.10;99.90;;;;;;5092351;28;20116;-75
2022/05/27 01:31:39;;;;;;;10.07;2.13;;;13.10;99.90;;;;;;5105010;28;20345;-75
2022/05/27 01:34:18;;;;;;;9.05;2.28;;;13.00;99.90;;;;;;5104409;28;20546;-75
2022/05/27 01:37:05;;;;;;;9.57;2.30;;;12.90;99.90;;;;;;5100347;28;20043;-75
2022/05/27 01:39:39;;;;;;;9.52;2.38;;;12.90;99.90;;;;;;5109406;28;20088;-75
2022/05/27 01:42:25;;;;;;;6.30;1.90;;;12.80;99.90;;;;;;5090139;28;20392;-75
2022/05/27 01:45:12;;;;;;;9.57;1.80;;;12.80;99.90;;;;;;5109482;28;20502;-70
2022/05/27 01:47:54;;;;;;;5.85;1.60;;;12.80;99.90;;;;;;5097905;28;20102;-71
2022/05/27 01:50:48;;;;;;;7.00;1.90;;;12.60;99.90;;;;;;5095171;28;20043;-71
2022/05/27 01:53:52;;;;;;;12.10;2.13;;;12.50;99.90;;;;;;5098463;28;20043;-71
2022/05/27 01:56:33;;;;;;;9.70;2.47;;;12.50;99.90;;;;;;5089423;28;20048;-70
2022/05/27 01:59:10;;;;;;;7.93;2.00;;;12.50;99.90;;;;;;5090861;28;20048;-70
2022/05/27 02:01:41;;;;;;;4.85;1.88;;;12.40;99.90;;;;;;5096995;28;20040;-69
2022/05/27 02:04:14;;;;;;;6.28;1.90;;;12.50;99.90;;;;;;5107445;28;20042;-70
2022/05/27 02:06:45;;;;;;;4.93;1.40;;;12.40;99.90;;;;;;5104802;28;20048;-70
2022/05/27 02:09:53;;;;;;;7.70;1.85;;;12.30;99.90;;;;;;5089195;28;20044;-69
2022/05/27 02:12:30;;;;;;;10.40;2.30;;;12.30;99.90;;;;;;5097197;28;20054;-69
2022/05/27 02:15:01;;;;;;;7.22;1.80;;;12.20;99.90;;;;;;5091263;28;20132;-70
2022/05/27 02:17:37;;;;;;;10.50;2.13;;;12.20;99.90;;;;;;5088678;28;20065;-69
2022/05/27 02:20:14;;;;;;;10.03;2.20;;;12.10;99.90;;;;;;5071999;28;20050;-70
2022/05/27 02:22:47;;;;;;;10.57;2.10;;;12.10;99.90;;;;;;5105196;28;20300;-70
2022/05/27 02:25:34;;;;;;;7.35;1.83;;;12.00;99.90;;;;;;5107752;28;20051;-69
2022/05/27 02:28:18;;;;;;;9.27;2.03;;;12.00;99.90;;;;;;5096477;28;20044;-70
2022/05/27 02:30:48;;;;;;;7.18;1.60;;;12.00;99.90;;;;;;5089933;28;20059;-70
2022/05/27 02:36:29;;;;;;;5.75;1.65;;;12.00;99.90;;;;;;5106149;28;20054;-75
2022/05/27 02:38:55;;;;;;;8.27;1.90;;;11.90;99.90;;;;;;5100910;28;20070;-75
2022/05/27 02:41:38;;;;;;;6.55;1.65;;;11.90;99.90;;;;;;5093036;28;20411;-76
2022/05/27 02:44:08;;;;;;;7.30;1.88;;;11.80;99.90;;;;;;5092966;28;20082;-76
2022/05/27 02:46:54;;;;;;;8.75;1.65;;;11.80;99.90;;;;;;5108345;28;20040;-75
2022/05/27 02:49:34;;;;;;;5.32;1.58;;;11.80;99.90;;;;;;5106324;28;20130;-76
2022/05/27 02:52:31;;;;;;;2.85;1.08;;;11.70;99.90;;;;;;5099000;28;20498;-76
2022/05/27 02:55:18;;;;;;;5.15;1.10;;;11.70;99.90;;;;;;5093293;28;20035;-75
2022/05/27 02:57:50;;;;;;;4.20;1.20;;;11.60;99.90;;;;;;5093265;28;20047;-75
2022/05/27 03:00:28;;;;;;;5.85;1.63;;;11.50;99.90;;;;;;5078392;28;20048;-75
2022/05/27 03:02:59;;;;;;;5.85;1.30;;;11.60;99.90;;;;;;5092681;28;20051;-74
2022/05/27 03:05:30;;;;;;;5.00;1.58;;;11.50;99.90;;;;;;5096497;28;20060;-76
2022/05/27 03:08:14;;;;;;;4.53;1.33;;;11.40;99.90;;;;;;5095012;28;20055;-74
2022/05/27 03:10:48;;;;;;;4.50;1.20;;;11.30;99.90;;;;;;5093026;28;20040;-75
2022/05/27 03:13:42;;;;;;;3.28;1.17;;;11.30;99.90;;;;;;5094687;28;20051;-75
2022/05/27 03:16:13;;;;;;;2.90;1.20;;;11.30;99.90;;;;;;5106206;28;20100;-74
2022/05/27 03:18:39;;;;;;;4.65;1.45;;;11.30;99.90;;;;;;5094829;28;20079;-75
2022/05/27 03:21:07;;;;;;;6.25;1.80;;;11.20;99.90;;;;;;5108188;28;20462;-75
2022/05/27 03:23:48;;;;;;;7.07;1.77;;;11.20;99.90;;;;;;5113013;28;20539;-75
2022/05/27 03:26:44;;;;;;;10.45;1.92;;;11.10;99.90;;;;;;5109429;28;20084;-72
2022/05/27 03:29:28;;;;;;;10.82;1.90;;;11.20;99.90;;;;;;5087338;28;20059;-72
2022/05/27 03:32:20;;;;;;;7.57;1.60;;;11.20;99.90;;;;;;5092901;28;20164;-71
2022/05/27 03:34:51;;;;;;;6.00;1.50;;;11.10;99.90;;;;;;5092137;28;20052;-72
2022/05/27 03:37:26;;;;;;;5.32;1.60;;;11.20;99.90;;;;;;5094076;28;20043;-72
2022/05/27 03:40:04;;;;;;;5.78;1.50;;;11.10;99.90;;;;;;5098556;28;20043;-72
2022/05/27 03:42:31;;;;;;;7.28;1.85;;;11.20;99.90;;;;;;5105860;28;20036;-72
2022/05/27 03:45:12;;;;;;;5.97;1.50;;;11.10;99.90;;;;;;5092217;28;20118;-73
2022/05/27 03:47:40;;;;;;;5.25;1.42;;;11.10;99.90;;;;;;5093130;28;20397;-71
2022/05/27 03:50:08;;;;;;;11.18;2.20;;;11.20;99.90;;;;;;5100218;28;20039;-72
2022/05/27 03:52:40;;;;;;;6.38;1.63;;;11.20;99.90;;;;;;5094976;28;20119;-71
2022/05/27 03:55:08;;;;;;;5.63;1.40;;;11.30;99.90;;;;;;5110237;28;20179;-71
2022/05/27 03:57:34;;;;;;;4.18;1.40;;;11.20;99.90;;;;;;5111595;28;20407;-71
2022/05/27 03:59:59;;;;;;;6.80;1.50;;;11.30;99.90;;;;;;5110222;28;20050;-71
2022/05/27 04:02:25;;;;;;;6.47;1.25;;;11.20;99.90;;;;;;5092893;28;20063;-72
2022/05/27 04:04:51;;;;;;;5.00;1.73;;;11.20;99.90;;;;;;5111626;28;20040;-73
2022/05/27 04:07:17;;;;;;;8.65;1.83;;;11.20;99.90;;;;;;5095121;28;20040;-72
2022/05/27 04:09:43;;;;;;;5.15;1.45;;;11.20;99.90;;;;;;5091621;28;20072;-71
2022/05/27 04:12:10;;;;;;;6.38;1.33;;;11.30;99.90;;;;;;5111152;28;20108;-72
2022/05/27 04:14:36;;;;;;;3.65;1.25;;;11.30;99.90;;;;;;5097839;28;20044;-72
2022/05/27 04:19:46;;;;;;;6.78;1.58;;;11.30;99.90;;;;;;5103871;28;20079;-71
2022/05/27 04:22:11;;;;;;;6.57;1.67;;;11.40;99.90;;;;;;5098948;28;20060;-72
2022/05/27 04:24:37;;;;;;;7.90;2.05;;;11.40;99.90;;;;;;5092019;28;20040;-71
2022/05/27 04:27:08;;;;;;;8.32;1.40;;;11.40;99.90;;;;;;5073592;28;20101;-71
2022/05/27 04:29:38;;;;;;;8.23;1.67;;;11.40;99.90;;;;;;5108024;28;20044;-71
2022/05/27 04:32:04;;;;;;;8.13;1.98;;;11.50;99.90;;;;;;5108458;28;20047;-72
2022/05/27 04:34:30;;;;;;;10.93;1.95;;;11.50;99.90;;;;;;5105605;28;20055;-72
2022/05/27 04:36:56;;;;;;;10.80;2.15;;;11.40;99.90;;;;;;5105639;28;20043;-72
2022/05/27 04:39:21;;;;;;;11.13;2.03;;;11.50;99.90;;;;;;5108936;28;20059;-72
2022/05/27 04:41:47;;;;;;;6.10;1.85;;;11.50;99.90;;;;;;5110826;28;20054;-72
2022/05/27 04:44:13;;;;;;;10.40;2.40;;;11.50;99.90;;;;;;5090427;28;20137;-72
2022/05/27 04:46:38;;;;;;;12.63;2.78;;;11.60;99.90;;;;;;5096113;28;20407;-71
2022/05/27 04:49:04;;;;;;;10.88;2.67;;;11.60;99.90;;;;;;5085618;28;20035;-72
2022/05/27 04:51:32;;;;;;;8.75;2.13;;;11.70;99.90;;;;;;5098711;28;20490;-72
2022/05/27 04:53:58;;;;;;;6.70;1.70;;;11.80;99.90;;;;;;5093664;28;20039;-72
2022/05/27 04:56:25;;;;;;;10.15;2.35;;;11.80;99.90;;;;;;5074082;28;20040;-72
2022/05/27 04:58:51;;;;;;;9.23;2.25;;;11.90;99.90;;;;;;5092265;28;20101;-73
2022/05/27 05:01:17;;;;;;;9.65;2.10;;;11.90;99.90;;;;;;5080243;28;20052;-72
2022/05/27 05:03:43;;;;;;;7.18;1.83;;;12.00;99.90;;;;;;5088733;28;20040;-73
2022/05/27 05:06:08;;;;;;;9.20;2.13;;;12.00;99.90;;;;;;5088861;28;20081;-73
2022/05/27 05:08:36;;;;;;;7.78;1.92;;;11.90;99.90;;;;;;5090563;28;20048;-72
2022/05/27 05:11:03;;;;;;;6.90;1.77;;;12.00;99.90;;;;;;5089883;28;20547;-71
2022/05/27 05:13:30;;;;;;;7.97;1.92;;;12.00;99.90;;;;;;5088441;28;20052;-71
2022/05/27 05:15:57;;;;;;;9.27;2.20;;;12.10;99.90;;;;;;5091236;28;20093;-72
2022/05/27 05:18:23;;;;;;;8.38;1.90;;;12.10;99.90;;;;;;5101156;28;20055;-72
2022/05/27 05:20:49;;;;;;;;;;;12.10;99.90;;;;;;5091434;28;20040;-71
2022/05/27 05:23:18;;;;;;;8.48;1.80;;;12.20;99.90;;;;;;5096106;28;19982;-71
2022/05/27 05:25:43;;;;;;;7.95;2.05;;;12.20;99.90;;;;;;5078400;28;20039;-72
2022/05/27 05:28:09;;;;;;;7.65;2.03;;;12.30;99.90;;;;;;5100543;28;20040;-71
2022/05/27 05:30:35;;;;;;;7.20;1.58;;;12.30;99.90;;;;;;5078643;28;20481;-73
2022/05/27 05:33:01;;;;;;;6.78;2.00;;;12.30;99.90;;;;;;5096245;28;20040;-73
2022/05/27 05:35:26;;;;;;;6.88;1.80;;;12.30;99.90;;;;;;5076808;28;20339;-73
2022/05/27 05:37:52;;;;;;;10.73;2.33;;;12.30;99.90;;;;;;5083998;28;20050;-73
2022/05/27 05:40:18;;;;;;;5.32;1.52;;;12.40;99.90;;;;;;5094706;28;20040;-72
2022/05/27 05:42:46;;;;;;;5.28;1.73;;;12.40;99.90;;;;;;5103923;28;20375;-71
2022/05/27 05:45:14;;;;;;;9.40;2.00;;;12.50;99.90;;;;;;5096897;28;20057;-71
2022/05/27 05:47:40;;;;;;;8.43;2.05;;;12.40;99.90;;;;;;5104555;28;20067;-71
2022/05/27 05:50:06;;;;;;;14.52;2.67;;;12.50;99.90;;;;;;5088394;28;20102;-71
2022/05/27 05:52:32;;;;;;;;;;;12.60;99.90;;;;;;5076983;28;20036;-72
2022/05/27 05:54:57;;;;;;;9.77;2.28;;;12.70;99.90;;;;;;5094388;28;20386;-71
2022/05/27 05:57:23;;;;;;;8.07;2.30;;;12.70;99.90;;;;;;5091346;28;20124;-72
2022/05/27 05:59:49;;;;;;;12.40;2.47;;;12.70;99.90;;;;;;5095278;28;20097;-71
2022/05/27 06:02:15;;;;;;;6.47;1.90;;;12.70;99.90;;;;;;5075798;28;20043;-72
2022/05/27 06:04:40;;;;;;;11.27;2.97;;;12.80;99.90;;;;;;5098326;28;20048;-71
2022/05/27 06:07:06;;;;;;;11.55;2.40;;;12.90;99.90;;;;;;5108245;28;20082;-71
2022/05/27 06:09:32;;;;;;;7.18;2.22;;;12.90;99.90;;;;;;5103130;28;20130;-73
2022/05/27 06:12:00;;;;;;;12.82;3.13;;;13.30;99.90;;;;;;5081047;28;20047;-72
2022/05/27 06:14:26;;;;;;;10.63;2.22;;;13.60;99.90;;;;;;5094423;28;20082;-71
2022/05/27 06:16:52;;;;;;;6.63;2.10;;;13.90;99.90;;;;;;5092628;28;20064;-72
2022/05/27 06:19:19;;;;;;;8.05;2.28;;;13.90;99.90;;;;;;5094314;28;20781;-72
2022/05/27 06:21:46;;;;;;;10.93;2.47;;;14.10;99.90;;;;;;5090532;28;20410;-72
2022/05/27 06:24:11;;;;;;;;;;;14.00;99.90;;;;;;5100948;28;20540;-72
2022/05/27 06:26:38;;;;;;;12.80;2.42;;;14.10;99.90;;;;;;5098182;28;19920;-72
2022/05/27 06:34:33;;;;;;;9.02;2.10;;;13.60;99.90;;;;;;5090419;28;20084;-73
2022/05/27 06:37:19;;;;;;;10.35;2.38;;;13.60;99.90;;;;;;5071262;28;20047;-77
2022/05/27 06:39:45;;;;;;;12.77;2.75;;;13.80;99.90;;;;;;5088956;28;20042;-77
2022/05/27 06:42:13;;;;;;;10.10;2.30;;;13.70;99.90;;;;;;5107914;28;20043;-77
2022/05/27 06:44:40;;;;;;;7.18;2.25;;;13.80;99.90;;;;;;5099157;28;20093;-77
2022/05/27 06:47:08;;;;;;;10.40;2.53;;;13.60;99.90;;;;;;5097989;28;20035;-77
2022/05/27 06:49:36;;;;;;;7.57;1.90;;;13.50;99.90;;;;;;5088259;28;20059;-76
2022/05/27 06:52:03;;;;;;;9.38;2.03;;;13.40;99.90;;;;;;5092429;28;20094;-77
2022/05/27 06:54:30;;;;;;;12.50;2.45;;;13.50;99.90;;;;;;5102265;28;20518;-75
2022/05/27 06:56:56;;;;;;;10.60;2.53;;;13.40;99.90;;;;;;5103187;28;20040;-77
2022/05/27 06:59:23;;;;;;;10.23;2.58;;;13.40;99.90;;;;;;5078521;28;20048;-77
2022/05/27 07:01:49;;;;;;;14.25;2.70;;;13.60;99.90;;;;;;5091845;28;20498;-76
2022/05/27 07:04:19;;;;;;;10.00;2.60;;;13.60;99.90;;;;;;5078075;28;20040;-77
2022/05/27 07:06:47;;;;;;;7.93;2.20;;;13.80;99.90;;;;;;5076418;28;20044;-75
2022/05/27 07:09:17;;;;;;;8.07;2.10;;;13.80;99.90;;;;;;5092203;28;20067;-77
2022/05/27 07:11:48;;;;;;;11.75;2.30;;;13.80;99.90;;;;;;5092984;28;20032;-75
2022/05/27 07:14:18;;;;;;;9.45;2.22;;;13.60;99.90;;;;;;5075135;28;20399;-77
2022/05/27 07:16:48;;;;;;;9.55;2.38;;;13.60;99.90;;;;;;5089876;28;20035;-77
2022/05/27 07:19:19;;;;;;;12.13;2.38;;;13.50;99.60;;;;;;5094999;28;20104;-77
2022/05/27 07:21:47;;;;;;;9.02;2.00;;;13.70;99.00;;;;;;5074936;28;20130;-77
2022/05/27 07:24:15;;;;;;;9.77;2.50;;;13.80;99.90;;;;;;5094454;28;20044;-76
2022/05/27 07:26:43;;;;;;;8.77;2.22;;;13.70;99.90;;;;;;5099589;28;20044;-77
2022/05/27 07:29:09;;;;;;;7.82;2.40;;;13.90;99.90;;;;;;5097160;28;20765;-78
2022/05/27 07:31:37;;;;;;;8.18;2.28;;;13.90;99.90;;;;;;5092982;28;20048;-76
2022/05/27 07:34:04;;;;;;;10.15;2.67;;;13.90;99.90;;;;;;5092334;28;20063;-77
2022/05/27 07:36:30;;;;;;;10.88;2.50;;;13.90;99.90;;;;;;5077379;28;20052;-77
2022/05/27 07:38:56;;;;;;;;;;;13.80;99.90;;;;;;5101661;28;20220;-76
2022/05/27 07:41:23;;;;;;;10.75;2.38;;;13.90;99.90;;;;;;5097191;28;19931;-77
2022/05/27 07:43:50;;;;;;;12.13;2.72;;;14.10;99.90;;;;;;5070557;28;20039;-77
2022/05/27 07:46:16;;;;;;;10.18;2.65;;;14.30;99.90;;;;;;5105099;28;20062;-76
2022/05/27 07:48:45;;;;;;;10.63;3.15;;;14.20;99.60;;;;;;5082638;28;20093;-75
2022/05/27 07:51:12;;;;;;;7.50;2.20;;;14.10;99.00;;;;;;5071382;28;20044;-76
2022/05/27 07:53:38;;;;;;;8.40;2.60;;;14.20;99.40;;;;;;5067458;28;20032;-75
2022/05/27 07:56:06;;;;;;;7.45;2.03;;;14.30;98.40;;;;;;5091471;28;20044;-75
2022/05/27 07:58:32;;;;;;;7.95;2.00;;;14.60;99.90;;;;;;5093255;28;20574;-77
2022/05/27 08:00:58;;;;;;;11.27;2.70;;;14.80;99.90;;;;;;5074992;28;20101;-76
2022/05/27 08:03:23;;;;;;;9.30;2.10;;;14.70;98.70;;;;;;5092563;28;20048;-75
2022/05/27 08:05:50;;;;;;;8.50;2.35;;;14.90;98.50;;;;;;5093319;28;20040;-75
2022/05/27 08:08:18;;;;;;;13.43;3.15;;;14.80;99.50;;;;;;5082732;28;20071;-76
2022/05/27 08:10:44;;;;;;;14.25;3.10;;;14.80;99.90;;;;;;5092720;28;20055;-75
2022/05/27 08:13:10;;;;;;;10.15;2.90;;;14.80;99.90;;;;;;5087909;28;20493;-75
2022/05/27 08:15:37;;;;;;;12.70;2.83;;;14.50;99.90;;;;;;5077260;28;20071;-74
2022/05/27 08:18:03;;;;;;;7.60;2.30;;;13.80;99.90;;;;;;5091183;28;20067;-75
2022/05/27 08:20:32;;;;;;;9.48;2.28;;;13.70;99.90;;;;;;5073047;28;20176;-76
2022/05/27 08:23:00;;;;;;;8.02;2.30;;;13.70;99.90;;;;;;5092971;28;20062;-78
2022/05/27 08:25:28;;;;;;;9.05;2.08;;;14.00;99.90;;;;;;5076525;28;20051;-72
2022/05/27 08:27:54;;;;;;;9.75;2.58;;;14.20;99.90;;;;;;5073021;28;20125;-73
2022/05/27 08:30:30;;;;;;;9.05;2.30;;;14.50;99.90;;;;;;5090980;28;20051;-73
2022/05/27 08:32:56;;;;;;;7.82;2.20;;;14.80;99.90;;;;;;5094552;28;20119;-74
2022/05/27 08:38:11;;;;;;;8.13;2.25;;;14.60;99.00;;;;;;5105875;28;20044;-74
2022/05/27 08:41:01;;;;;;;6.53;2.15;;;14.90;97.60;;;;;;5093892;28;20147;-74
2022/05/27 08:43:43;;;;;;;8.35;2.20;;;14.70;97.60;;;;;;5103176;28;20130;-74
2022/05/27 08:46:34;;;;;;;9.40;2.22;;;14.50;97.60;;;;;;5093072;28;20354;-73
2022/05/27 08:49:05;;;;;;;8.68;2.17;;;14.60;98.00;;;;;;5087521;28;20761;-74
2022/05/27 08:52:03;;;;;;;12.32;2.63;;;14.90;99.20;;;;;;5090295;28;20491;-74
2022/05/27 08:54:35;;;;;;;12.23;2.47;;;14.20;99.90;;;;;;5096616;28;20042;-71
2022/05/27 09:00:14;;;;;;;9.55;2.35;;;13.80;99.90;;;;;;5093777;28;20050;-73
2022/05/27 09:02:56;;;;;;;8.43;1.92;;;14.40;99.90;;;;;;5095243;28;20087;-73
2022/05/27 09:05:40;;;;;;;8.80;2.38;;;14.90;99.90;;;;;;5092644;28;20052;-72
2022/05/27 09:08:19;;;;;;;10.70;2.63;;;15.10;99.00;;;;;;5095113;28;20036;-74
2022/05/27 09:11:16;;;;;;;11.50;2.90;;;14.60;98.80;;;;;;5093522;28;20134;-75
2022/05/27 09:14:13;;;;;;;7.03;1.93;;;14.60;99.80;;;;;;5094072;28;20066;-74
2022/05/27 09:17:02;;;;;;;12.18;2.70;;;15.00;98.30;;;;;;5092573;28;20697;-73
2022/05/27 09:19:55;;;;;;;11.90;2.83;;;15.00;97.00;;;;;;5092594;28;20122;-76
2022/05/27 09:22:46;;;;;;;10.60;2.28;;;14.80;99.50;;;;;;5094103;28;20249;-76
2022/05/27 09:25:18;;;;;;;11.43;2.47;;;14.50;99.70;;;;;;5097831;28;20035;-73
2022/05/27 09:27:52;;;;;;;9.80;2.58;;;15.00;99.90;;;;;;5100792;28;20046;-73
2022/05/27 09:30:18;;;;;;;9.40;2.28;;;15.10;98.40;;;;;;5095302;28;20043;-74
2022/05/27 09:32:58;;;;;;;11.25;2.72;;;15.10;98.20;;;;;;5095858;28;20139;-73
2022/05/27 09:35:42;;;;;;;9.55;2.35;;;15.40;98.50;;;;;;5090383;28;20067;-72
2022/05/27 09:38:21;;;;;;;10.45;2.20;;;15.90;98.00;;;;;;5088900;28;20105;-74
2022/05/27 09:40:59;;;;;;;11.90;2.38;;;15.90;96.80;;;;;;5092086;28;20051;-73
2022/05/27 09:43:32;;;;;;;9.65;2.30;;;15.80;97.60;;;;;;5107320;28;20043;-76
2022/05/27 09:46:05;;;;;;;8.38;2.35;;;15.50;97.20;;;;;;5094362;28;20036;-77
2022/05/27 09:48:32;;;;;;;9.95;2.53;;;15.10;98.40;;;;;;5081431;28;20127;-77
2022/05/27 09:51:01;;;;;;;11.80;2.60;;;14.90;99.60;;;;;;5080146;28;20200;-76
2022/05/27 09:53:36;;;;;;;9.20;2.30;;;15.20;98.40;;;;;;5099946;28;20115;-77
2022/05/27 09:56:09;;;;;;;10.77;2.65;;;15.50;97.30;;;;;;5097510;28;20122;-76
2022/05/27 09:58:37;;;;;;;11.18;2.40;;;15.90;98.50;;;;;;5093025;28;20087;-76
2022/05/27 10:01:24;;;;;;;9.90;2.45;;;16.10;98.30;;;;;;5099533;28;20124;-75
2022/05/27 10:04:14;;;;;;;9.32;2.30;;;15.50;96.20;;;;;;5080809;28;20131;-76
2022/05/27 10:06:40;;;;;;;9.43;2.58;;;15.40;96.60;;;;;;5092868;28;20059;-71
2022/05/27 10:09:28;;;;;;;11.43;2.47;;;15.50;97.40;;;;;;5088700;28;20044;-72
2022/05/27 10:11:55;;;;;;;;;;;15.50;98.70;;;;;;5089068;28;20036;-73
2022/05/27 10:14:28;;;;;;;10.75;2.80;;;15.20;99.70;;;;;;5090699;28;19928;-74
2022/05/27 10:17:10;;;;;;;13.38;2.78;;;14.90;99.90;;;;;;5097251;28;20035;-75
2022/05/27 10:19:38;;;;;;;8.30;2.55;;;15.20;99.90;;;;;;5091449;28;20044;-73
2022/05/27 10:22:09;;;;;;;11.68;2.40;;;15.60;99.90;;;;;;5072414;28;20127;-73
2022/05/27 10:24:40;;;;;;;10.60;2.38;;;15.00;97.70;;;;;;5095516;28;20420;-74
2022/05/27 10:27:17;;;;;;;13.15;2.88;;;15.10;99.90;;;;;;5102491;28;20047;-77
2022/05/27 10:30:06;;;;;;;9.48;2.40;;;14.60;99.90;;;;;;5108726;28;20530;-74
2022/05/27 10:32:37;;;;;;;10.80;2.53;;;15.20;99.90;;;;;;5105747;28;20035;-74
2022/05/27 10:35:23;;;;;;;9.45;2.40;;;15.10;99.90;;;;;;5098206;28;20035;-74
2022/05/27 10:38:11;;;;;;;11.77;2.72;;;15.00;99.90;;;;;;5088715;28;20139;-74
2022/05/27 10:41:15;;;;;;;9.40;2.60;;;14.50;99.90;;;;;;5092094;28;20151;-74
2022/05/27 10:43:55;;;;;;;9.55;2.47;;;14.30;99.90;;;;;;5065178;28;20503;-74
2022/05/27 10:46:33;;;;;;;13.35;2.80;;;14.30;99.90;;;;;;5081625;28;20038;-74
2022/05/27 10:49:26;;;;;;;10.25;2.80;;;14.10;99.90;;;;;;5091050;28;20109;-74
2022/05/27 10:52:07;;;;;;;13.20;2.95;;;14.10;99.90;;;;;;5099741;28;20369;-74
2022/05/27 10:55:29;;;;;;;9.35;2.53;;;14.30;99.90;;;;;;5094827;28;20046;-73
2022/05/27 11:03:59;;;;;;;10.10;2.40;;;14.50;99.90;;;;;;5092120;28;20167;-77
2022/05/27 11:06:32;;;;;;;13.27;2.63;;;14.70;99.90;;;;;;5087408;28;20147;-73
2022/05/27 11:09:03;;;;;;;10.00;2.42;;;15.20;99.90;;;;;;5078589;28;20051;-74
2022/05/27 11:12:17;;;;;;;10.20;2.60;;;15.20;99.90;;;;;;5095899;28;20047;-74
2022/05/27 11:15:11;;;;;;;11.73;2.60;;;15.30;99.90;;;;;;5101530;28;20050;-73
2022/05/27 11:17:55;;;;;;;8.85;2.45;;;15.40;99.90;;;;;;5092244;28;20032;-73
2022/05/27 11:20:48;;;;;;;10.25;2.60;;;15.20;99.90;;;;;;5088708;28;20527;-77
2022/05/27 11:23:17;;;;;;;11.52;2.70;;;14.90;99.90;;;;;;5103064;28;20064;-77
2022/05/27 11:25:52;;;;;;;13.25;3.08;;;15.00;99.90;;;;;;5093634;28;20078;-75
2022/05/27 11:28:43;;;;;;;12.00;2.65;;;15.00;99.90;;;;;;5106467;28;20433;-72
2022/05/27 11:31:27;;;;;;;9.60;2.78;;;15.10;99.90;;;;;;5092904;28;20085;-73
2022/05/27 11:34:22;;;;;;;9.38;2.38;;;15.10;99.90;;;;;;5092351;28;20050;-76
2022/05/27 11:37:00;;;;;;;8.90;2.47;;;14.80;99.90;;;;;;5096496;28;20046;-74
2022/05/27 11:39:59;;;;;;;11.10;2.70;;;14.70;99.90;;;;;;5083974;28;20051;-75
2022/05/27 11:42:52;;;;;;;12.45;2.30;;;14.40;99.90;;;;;;5092243;28;20142;-76
2022/05/27 11:45:30;;;;;;;9.15;2.60;;;14.50;99.90;;;;;;5077734;28;20043;-76
2022/05/27 11:48:18;;;;;;;10.18;2.72;;;14.70;99.90;;;;;;5101092;28;20044;-76
2022/05/27 11:51:17;;;;;;;10.55;2.30;;;14.20;99.90;;;;;;5094034;28;20119;-76
2022/05/27 11:54:01;;;;;;;13.75;2.40;;;14.40;99.90;;;;;;5090971;28;20039;-75
2022/05/27 11:56:58;;;;;;;12.48;2.67;;;14.80;99.90;;;;;;5099355;28;20104;-75
2022/05/27 11:59:25;;;;;;;9.05;2.50;;;15.00;99.90;;;;;;5094125;28;20043;-76
2022/05/27 12:02:03;;;;;;;10.45;2.33;;;14.80;99.90;;;;;;5077597;28;20090;-75
2022/05/27 12:04:44;;;;;;;9.00;2.40;;;14.80;99.90;;;;;;5094635;28;20054;-75
2022/05/27 12:07:24;;;;;;;11.45;2.47;;;14.70;99.90;;;;;;5090895;28;20083;-76
2022/05/27 12:10:12;;;;;;;8.40;2.17;;;14.80;99.20;;;;;;5074109;28;20043;-75
2022/05/27 12:12:53;;;;;;;8.82;1.88;;;14.90;99.20;;;;;;5089824;28;20044;-75
2022/05/27 12:15:28;;;;;;;6.65;1.70;;;14.70;99.90;;;;;;5078069;28;20040;-77
2022/05/27 12:17:55;;;;;;;9.95;2.00;;;14.70;99.90;;;;;;5098394;28;20401;-76
2022/05/27 12:20:26;;;;;;;9.73;2.35;;;14.80;99.90;;;;;;5110400;27;20128;-77
2022/05/27 12:22:54;;;;;;;10.00;2.38;;;14.80;99.90;;;;;;5098596;28;20046;-76
2022/05/27 12:25:28;;;;;;;7.82;2.42;;;14.50;99.90;;;;;;5098111;28;20487;-75
2022/05/27 12:27:56;;;;;;;9.88;2.08;;;14.20;99.90;;;;;;5094914;28;20512;-76
2022/05/27 12:30:42;;;;;;;9.25;2.22;;;14.30;99.90;;;;;;5080640;28;20471;-75
2022/05/27 12:33:17;;;;;;;9.43;2.45;;;14.30;99.90;;;;;;5092182;28;20054;-77
2022/05/27 12:35:50;;;;;;;14.45;2.67;;;14.00;99.90;;;;;;5092788;28;20032;-76
2022/05/27 12:38:25;;;;;;;9.57;2.38;;;13.80;99.90;;;;;;5091355;28;20117;-73
2022/05/27 12:40:54;;;;;;;13.88;2.70;;;13.80;99.90;;;;;;5090432;28;20168;-72
2022/05/27 12:43:53;;;;;;;14.55;3.38;;;13.80;99.90;;;;;;5090570;28;20044;-72
2022/05/27 12:46:42;;;;;;;12.40;3.08;;;14.40;99.90;;;;;;5095818;28;20039;-71
2022/05/27 12:49:38;;;;;;;13.50;2.67;;;14.20;99.90;;;;;;5076840;28;20044;-72
2022/05/27 12:52:07;;;;;;;11.38;2.47;;;14.10;99.90;;;;;;5105319;28;20428;-72
2022/05/27 12:54:42;;;;;;;11.55;2.92;;;14.60;99.90;;;;;;5090769;28;20074;-71
2022/05/27 13:03:40;;;;;;;11.13;2.60;;;14.80;99.90;;;;;;5094269;28;20185;-77
2022/05/27 13:06:17;;;;;;;7.97;2.28;;;15.30;99.90;;;;;;5101673;28;20204;-73
2022/05/27 13:08:59;;;;;;;9.98;2.30;;;15.70;99.90;;;;;;5099004;28;20109;-74
2022/05/27 13:11:30;;;;;;;12.90;2.75;;;15.60;99.80;;;;;;5098558;28;20062;-73
2022/05/27 13:14:06;;;;;;;10.82;2.55;;;15.50;99.90;;;;;;5091108;28;20055;-73
2022/05/27 13:16:43;;;;;;;10.27;2.72;;;15.60;99.90;;;;;;5095779;28;20047;-77
2022/05/27 13:19:22;;;;;;;10.02;2.42;;;15.20;99.90;;;;;;5092649;28;20134;-77
2022/05/27 13:22:00;;;;;;;11.68;2.70;;;15.20;99.90;;;;;;5094142;28;20043;-74
2022/05/27 13:24:47;;;;;;;10.52;2.40;;;14.70;99.90;;;;;;5089541;28;20048;-76
2022/05/27 13:27:24;;;;;;;10.88;2.30;;;15.10;99.90;;;;;;5093966;28;20043;-76
2022/05/27 13:30:01;;;;;;;11.27;2.50;;;14.90;99.90;;;;;;5089447;28;20095;-79
2022/05/27 13:32:33;;;;;;;12.98;2.42;;;14.50;99.90;;;;;;5090154;28;20051;-79
2022/05/27 13:35:14;;;;;;;10.50;2.90;;;14.20;99.90;;;;;;5098369;28;20169;-78
2022/05/27 13:37:47;;;;;;;16.70;3.00;;;13.90;99.90;;;;;;5091338;28;20047;-77
2022/05/27 13:40:34;;;;;;;11.80;2.53;;;14.10;99.90;;;;;;5091423;28;20477;-77
2022/05/27 13:43:14;;;;;;;10.02;1.83;;;14.20;99.90;;;;;;5101175;28;20035;-77
2022/05/27 13:46:03;;;;;;;11.70;2.78;;;14.30;99.90;;;;;;5098238;28;20047;-77
2022/05/27 13:48:39;;;;;;;12.10;2.83;;;14.20;99.90;;;;;;5102541;28;20490;-77
2022/05/27 13:51:13;;;;;;;7.72;2.25;;;14.40;99.90;;;;;;5098903;28;20063;-77